Memphis, TN

9:43 PM CDT on August 28, 2016 (GMT -0500)
West Memphis Municipal | | Change Station

Elev 213 ft 35.14 °N, 90.23 °W | Updated 50 minutes ago

Clear
Clear
81 °F
Feels Like 86 °F
N
0
Wind Variable Wind from North

Today
High -- | Low -- °F
--% Chance of Precip.
Yesterday
High -- | Low -- °F
Precip. -- in
Pressure 30.02 in
Visibility 10.0 miles
Clouds Clear
Heat Index 86 °F
Dew Point 74 °F
Humidity 79%
Rainfall 0.07 in
Snow Depth Not available.
6:29 AM 7:31 PM
Waning Crescent, 11% visible
METAR KAWM 290153Z AUTO 00000KT 10SM CLR 27/23 A3003 RMK AO2 RAB20E30 SLP165 P0000 T02720233
Pressure 30.02 in
Visibility 10.0 miles
Clouds Clear
Heat Index 86 °F
Dew Point 74 °F
Humidity 79%
Rainfall 0.07 in
Snow Depth Not available.
6:29 AM 7:31 PM
Waning Crescent, 11% visible
METAR KAWM 290153Z AUTO 00000KT 10SM CLR 27/23 A3003 RMK AO2 RAB20E30 SLP165 P0000 T02720233

10-Day Weather Forecast

Almanac

Astronomy

Aug. 28, 2016 Rise Set
Actual Time
Civil Twilight
Nautical Twilight
Astronomical Twilight
Moon
Length of Visible Light
Length of Day
Tomorrow will be .
, % of the Moon is Illuminated

Today's Extremes

State Highs State Lows

Community

WunderPhotos

Upload Photos

1,935,780 photos uploaded!

WunderBlog® & News

Nearby

Air Quality

  Air Quality AQ Index Pollutant
Not available.

Snow Depth

Station Depth Elevation

Earthquake Activity

City Distance Mag. Time & Date
Minimum magnitude displayed is 2.5.

Coastal Water Temperatures

Place Temperature

Stations

Nearby Weather Stations

Station Location Temp. Windchill Dew Point Humidity Wind Precip. Elev Updated Type
                   

Watches & Warnings

There are currently no watches in effect.